createdAt,value
2018-07-05T00:01:15.077Z,19.70
2018-07-05T00:03:54.815Z,19.70
2018-07-05T00:06:34.427Z,19.70
2018-07-05T00:09:14.301Z,19.70
2018-07-05T00:11:53.920Z,19.70
2018-07-05T00:14:33.916Z,19.70
2018-07-05T00:17:13.468Z,19.60
2018-07-05T00:19:53.207Z,19.60
2018-07-05T00:22:33.649Z,19.60
2018-07-05T00:25:13.364Z,19.50
2018-07-05T00:27:53.038Z,19.40
2018-07-05T00:30:32.638Z,19.40
2018-07-05T00:33:12.586Z,19.30
2018-07-05T00:35:52.247Z,19.30
2018-07-05T00:38:31.793Z,19.20
2018-07-05T00:41:11.499Z,19.20
2018-07-05T00:43:51.279Z,19.20
2018-07-05T00:46:30.839Z,19.20
2018-07-05T00:49:10.425Z,19.20
2018-07-05T00:51:51.218Z,19.20
2018-07-05T00:54:30.921Z,19.20
2018-07-05T00:57:10.728Z,19.20
2018-07-05T00:59:50.449Z,19.10
2018-07-05T01:02:30.130Z,19.10
2018-07-05T01:05:10.119Z,19.00
2018-07-05T01:07:49.887Z,19.00
2018-07-05T01:10:29.611Z,19.00
2018-07-05T01:13:09.328Z,19.00
2018-07-05T01:15:49.051Z,19.00
2018-07-05T01:18:28.864Z,19.00
2018-07-05T01:21:08.543Z,19.00
2018-07-05T01:23:48.068Z,19.00
2018-07-05T01:26:27.804Z,18.90
2018-07-05T01:29:07.482Z,18.80
2018-07-05T01:31:47.195Z,18.80
2018-07-05T01:34:26.939Z,18.70
2018-07-05T01:37:06.736Z,18.70
2018-07-05T01:39:46.538Z,18.60
2018-07-05T01:42:26.259Z,18.60
2018-07-05T01:45:06.003Z,18.50
2018-07-05T01:47:45.775Z,18.50
2018-07-05T01:50:25.389Z,18.50
2018-07-05T01:53:04.988Z,18.50
2018-07-05T01:55:44.634Z,18.50
2018-07-05T01:58:24.314Z,18.50
2018-07-05T02:01:03.884Z,18.50
2018-07-05T02:03:43.503Z,18.40
2018-07-05T02:06:23.930Z,18.40
2018-07-05T02:09:03.529Z,18.30
2018-07-05T02:11:43.078Z,18.30
2018-07-05T02:14:22.808Z,18.30
2018-07-05T02:17:02.478Z,18.20
2018-07-05T02:19:42.291Z,18.30
2018-07-05T02:22:22.054Z,18.20
2018-07-05T02:25:01.902Z,18.10
2018-07-05T02:27:41.691Z,18.10
2018-07-05T02:30:21.374Z,18.00
2018-07-05T02:33:01.234Z,17.90
2018-07-05T02:35:41.060Z,17.80
2018-07-05T02:38:22.560Z,17.80
2018-07-05T02:41:03.391Z,17.70
2018-07-05T02:43:42.961Z,17.70
2018-07-05T02:46:22.884Z,17.70
2018-07-05T02:51:36.384Z,17.80
2018-07-05T02:54:16.269Z,17.80
2018-07-05T02:56:56.326Z,17.80
2018-07-05T02:59:36.025Z,17.80
2018-07-05T03:02:15.723Z,17.90
2018-07-05T03:04:55.564Z,17.90
2018-07-05T03:07:35.139Z,17.90
2018-07-05T03:10:14.796Z,17.90
2018-07-05T03:12:54.321Z,17.90
2018-07-05T03:15:34.248Z,17.90
2018-07-05T03:18:14.185Z,17.90
2018-07-05T03:20:54.032Z,17.90
2018-07-05T03:23:33.744Z,17.80
2018-07-05T03:26:13.632Z,17.80
2018-07-05T03:28:53.253Z,17.70
2018-07-05T03:31:32.911Z,17.70
2018-07-05T03:34:12.576Z,17.70
2018-07-05T03:36:52.299Z,17.70
2018-07-05T03:39:32.018Z,17.70
2018-07-05T03:42:11.631Z,17.70
2018-07-05T03:44:51.252Z,17.70
2018-07-05T03:47:30.943Z,17.70
2018-07-05T03:50:10.640Z,17.80
2018-07-05T03:52:50.297Z,17.80
2018-07-05T03:55:29.841Z,17.80
2018-07-05T03:58:09.595Z,17.80
2018-07-05T04:00:49.405Z,17.90
2018-07-05T04:03:29.088Z,17.90
2018-07-05T04:06:08.866Z,17.90
2018-07-05T04:08:48.666Z,17.90
2018-07-05T04:11:28.363Z,17.90
2018-07-05T04:14:08.011Z,17.80
2018-07-05T04:16:47.856Z,17.70
2018-07-05T04:19:27.747Z,17.60
2018-07-05T04:22:07.549Z,17.50
2018-07-05T04:24:47.191Z,17.50
2018-07-05T04:27:26.915Z,17.60
2018-07-05T04:30:06.600Z,17.70
2018-07-05T04:32:46.447Z,17.80
2018-07-05T04:35:26.197Z,17.80
2018-07-05T04:38:06.008Z,17.90
2018-07-05T04:40:45.627Z,18.00
2018-07-05T04:43:25.552Z,18.10
2018-07-05T04:46:05.257Z,18.20
2018-07-05T04:48:44.942Z,18.20
2018-07-05T04:51:24.603Z,18.30
2018-07-05T04:54:04.232Z,18.40
2018-07-05T04:56:43.877Z,18.50
2018-07-05T04:59:23.443Z,18.50
2018-07-05T05:02:03.093Z,18.60
2018-07-05T05:04:42.769Z,18.60
2018-07-05T05:07:22.394Z,18.70
2018-07-05T05:10:02.173Z,18.70
2018-07-05T05:12:41.793Z,18.80
2018-07-05T05:15:21.318Z,18.90
2018-07-05T05:18:01.275Z,18.90
2018-07-05T05:20:41.044Z,19.00
2018-07-05T05:23:20.713Z,19.10
2018-07-05T05:26:00.525Z,19.10
2018-07-05T05:28:40.351Z,19.20
2018-07-05T05:31:20.179Z,19.30
2018-07-05T05:34:00.330Z,19.30
2018-07-05T05:36:39.939Z,19.40
2018-07-05T05:39:20.361Z,19.50
2018-07-05T05:42:00.232Z,19.60
2018-07-05T05:44:39.966Z,19.60
2018-07-05T05:47:19.590Z,19.70
2018-07-05T05:50:00.026Z,19.80
2018-07-05T05:52:41.439Z,19.80
2018-07-05T05:55:21.042Z,19.90
2018-07-05T05:58:00.589Z,19.90
2018-07-05T06:00:43.097Z,20.00
2018-07-05T06:03:22.784Z,20.10
2018-07-05T06:06:03.687Z,20.20
2018-07-05T06:08:43.615Z,20.30
2018-07-05T06:11:23.255Z,20.30
2018-07-05T06:14:03.334Z,20.40
2018-07-05T06:16:43.190Z,20.50
2018-07-05T06:19:22.894Z,20.60
2018-07-05T06:22:02.775Z,20.70
2018-07-05T06:24:42.414Z,20.80
2018-07-05T06:27:22.065Z,20.90
2018-07-05T06:30:07.418Z,21.00
2018-07-05T06:32:47.098Z,21.10
2018-07-05T06:35:26.948Z,21.20
2018-07-05T06:38:10.468Z,21.30
2018-07-05T06:40:50.493Z,21.50
2018-07-05T06:43:30.249Z,21.50
2018-07-05T06:46:11.211Z,21.60
2018-07-05T06:48:51.633Z,21.60
2018-07-05T06:51:34.451Z,21.70
2018-07-05T06:54:14.826Z,21.80
2018-07-05T06:56:54.634Z,21.90
2018-07-05T06:59:34.305Z,22.10
2018-07-05T07:02:14.075Z,22.20
2018-07-05T07:04:53.691Z,22.30
2018-07-05T07:07:33.649Z,22.40
2018-07-05T07:10:13.540Z,22.50
2018-07-05T07:15:29.240Z,22.60
2018-07-05T07:18:08.967Z,22.70
2018-07-05T07:20:48.705Z,22.80
2018-07-05T07:23:28.388Z,22.90
2018-07-05T07:26:07.943Z,23.10
2018-07-05T07:28:47.870Z,23.20
2018-07-05T07:31:27.727Z,23.30
2018-07-05T07:34:08.639Z,23.50
2018-07-05T07:36:48.432Z,23.60
2018-07-05T07:39:28.000Z,23.80
2018-07-05T07:41:55.376Z,23.90
2018-07-05T07:44:22.867Z,24.10
2018-07-05T07:46:50.221Z,24.20
2018-07-05T07:49:17.630Z,24.40
2018-07-05T07:51:44.978Z,24.70
2018-07-05T07:54:12.362Z,24.90
2018-07-05T07:56:40.403Z,25.00
2018-07-05T07:59:07.760Z,25.00
2018-07-05T08:01:35.254Z,25.10
2018-07-05T08:04:02.609Z,25.20
2018-07-05T08:06:29.966Z,25.30
2018-07-05T08:08:57.292Z,25.40
2018-07-05T08:11:24.815Z,25.50
2018-07-05T08:13:52.178Z,25.70
2018-07-05T08:16:19.525Z,25.80
2018-07-05T08:18:46.852Z,25.80
2018-07-05T08:21:14.196Z,25.90
2018-07-05T08:23:41.785Z,25.90
2018-07-05T08:26:09.169Z,25.90
2018-07-05T08:28:38.757Z,25.90
2018-07-05T08:31:06.186Z,25.90
2018-07-05T08:33:33.540Z,26.00
2018-07-05T08:36:01.152Z,26.10
2018-07-05T08:38:28.720Z,26.30
2018-07-05T08:40:56.085Z,26.50
2018-07-05T08:43:23.905Z,26.60
2018-07-05T08:45:51.268Z,26.70
2018-07-05T08:48:18.825Z,26.90
2018-07-05T08:50:46.187Z,27.00
2018-07-05T08:53:15.362Z,27.20
2018-07-05T08:55:42.741Z,27.30
2018-07-05T08:58:10.079Z,27.50
2018-07-05T09:00:37.617Z,27.70
2018-07-05T09:03:05.227Z,27.70
2018-07-05T09:05:32.619Z,27.60
2018-07-05T09:07:59.979Z,27.60
2018-07-05T09:10:27.364Z,27.60
2018-07-05T09:12:54.676Z,27.80
2018-07-05T09:15:22.048Z,27.90
2018-07-05T09:17:49.608Z,27.90
2018-07-05T09:20:16.758Z,27.80
2018-07-05T09:22:44.139Z,27.90
2018-07-05T09:25:11.477Z,27.90
2018-07-05T09:27:38.820Z,28.20
2018-07-05T09:30:06.160Z,28.30
2018-07-05T09:32:33.522Z,28.20
2018-07-05T09:35:00.882Z,28.20
2018-07-05T09:37:28.363Z,28.00
2018-07-05T09:42:27.225Z,28.30
2018-07-05T09:44:54.590Z,28.40
2018-07-05T09:47:22.138Z,28.60
2018-07-05T09:49:49.546Z,28.60
2018-07-05T09:52:16.930Z,28.70
2018-07-05T09:54:44.299Z,29.00
2018-07-05T09:57:11.850Z,29.20
2018-07-05T09:59:39.273Z,29.20
2018-07-05T10:02:06.831Z,29.40
2018-07-05T10:04:34.194Z,29.40
2018-07-05T10:07:01.600Z,29.40
2018-07-05T10:09:29.097Z,29.40
2018-07-05T10:11:56.498Z,29.50
2018-07-05T10:14:23.986Z,29.60
2018-07-05T10:16:51.380Z,29.70
2018-07-05T10:19:19.317Z,29.80
2018-07-05T10:21:46.658Z,29.90
2018-07-05T10:24:13.968Z,29.80
2018-07-05T10:26:41.354Z,29.70
2018-07-05T10:29:20.963Z,29.70
2018-07-05T10:32:00.840Z,29.80
2018-07-05T10:34:28.177Z,30.00
2018-07-05T10:36:55.554Z,30.30
2018-07-05T10:39:22.970Z,30.60
2018-07-05T10:42:02.600Z,30.70
2018-07-05T10:44:42.289Z,30.60
2018-07-05T10:47:21.952Z,30.20
2018-07-05T10:50:01.703Z,29.80
2018-07-05T10:52:41.310Z,29.60
2018-07-05T10:55:21.349Z,29.60
2018-07-05T10:58:00.961Z,29.40
2018-07-05T11:00:41.102Z,29.20
2018-07-05T11:03:20.955Z,29.10
2018-07-05T11:06:00.625Z,29.00
2018-07-05T11:08:40.433Z,28.70
2018-07-05T11:11:20.312Z,28.50
2018-07-05T11:13:59.950Z,28.30
2018-07-05T11:16:40.112Z,28.30
2018-07-05T11:19:19.984Z,28.60
2018-07-05T11:21:59.746Z,28.70
2018-07-05T11:24:39.826Z,28.50
2018-07-05T11:27:19.963Z,28.10
2018-07-05T11:30:00.036Z,27.80
2018-07-05T11:32:39.829Z,27.50
2018-07-05T11:35:19.748Z,27.40
2018-07-05T11:37:59.528Z,27.60
2018-07-05T11:40:39.184Z,27.80
2018-07-05T11:43:19.110Z,28.00
2018-07-05T11:45:58.901Z,28.30
2018-07-05T11:48:38.567Z,28.50
2018-07-05T11:51:19.117Z,28.50
2018-07-05T11:53:58.882Z,28.50
2018-07-05T11:56:38.566Z,28.60
2018-07-05T11:59:18.073Z,28.90
2018-07-05T12:01:58.128Z,29.40
2018-07-05T12:04:37.885Z,29.70
2018-07-05T12:07:17.684Z,30.00
2018-07-05T12:09:57.408Z,30.10
2018-07-05T12:12:37.151Z,30.00
2018-07-05T12:15:16.813Z,29.90
2018-07-05T12:17:56.597Z,29.80
2018-07-05T12:20:36.679Z,29.70
2018-07-05T12:23:21.183Z,29.70
2018-07-05T12:26:00.994Z,29.50
2018-07-05T12:28:44.837Z,29.40
2018-07-05T12:33:59.956Z,29.30
2018-07-05T12:36:43.486Z,29.40
2018-07-05T12:39:23.238Z,29.60
2018-07-05T12:42:04.008Z,29.90
2018-07-05T12:44:43.549Z,30.20
2018-07-05T12:47:24.374Z,30.40
2018-07-05T12:50:03.991Z,30.60
2018-07-05T12:52:43.720Z,30.70
2018-07-05T12:55:23.360Z,30.90
2018-07-05T12:58:03.116Z,30.70
2018-07-05T13:00:42.900Z,30.50
2018-07-05T13:03:22.556Z,30.20
2018-07-05T13:06:02.208Z,30.10
2018-07-05T13:08:41.784Z,30.10
2018-07-05T13:13:55.267Z,31.40
2018-07-05T13:16:35.848Z,32.40
2018-07-05T13:19:15.774Z,33.00
2018-07-05T13:21:57.840Z,33.20
2018-07-05T13:24:37.469Z,32.60
2018-07-05T13:27:17.165Z,31.60
2018-07-05T13:29:56.966Z,30.60
2018-07-05T13:32:36.706Z,29.10
2018-07-05T13:35:16.504Z,28.70
2018-07-05T13:37:56.320Z,28.50
2018-07-05T13:40:36.229Z,28.40
2018-07-05T13:43:15.990Z,28.20
2018-07-05T13:45:55.916Z,27.90
2018-07-05T13:48:35.810Z,27.50
2018-07-05T13:51:15.721Z,27.10
2018-07-05T13:53:56.586Z,26.50
2018-07-05T13:56:36.499Z,26.10
2018-07-05T13:59:16.540Z,25.70
2018-07-05T14:01:56.395Z,25.40
2018-07-05T14:04:36.299Z,25.20
2018-07-05T14:07:16.015Z,24.90
2018-07-05T14:09:55.449Z,24.60
2018-07-05T14:12:35.037Z,24.40
2018-07-05T14:15:14.719Z,24.20
2018-07-05T14:17:54.388Z,24.00
2018-07-05T14:20:34.227Z,23.90
2018-07-05T14:23:13.972Z,23.70
2018-07-05T14:25:54.271Z,23.50
2018-07-05T14:28:34.012Z,23.10
2018-07-05T14:31:13.857Z,22.80
2018-07-05T14:33:53.684Z,22.60
2018-07-05T14:36:33.372Z,22.50
2018-07-05T14:39:13.075Z,22.50
2018-07-05T14:41:52.975Z,22.70
2018-07-05T14:44:32.683Z,23.10
2018-07-05T14:47:12.417Z,23.60
2018-07-05T14:49:52.051Z,24.10
2018-07-05T14:52:31.741Z,24.80
2018-07-05T14:55:11.375Z,25.40
2018-07-05T14:57:50.993Z,26.10
2018-07-05T15:00:30.674Z,26.70
2018-07-05T15:05:44.266Z,27.80
2018-07-05T15:08:24.116Z,28.00
2018-07-05T15:11:03.921Z,27.80
2018-07-05T15:13:43.575Z,27.40
2018-07-05T15:16:23.191Z,26.90
2018-07-05T15:19:02.806Z,26.70
2018-07-05T15:21:42.503Z,26.50
2018-07-05T15:24:22.514Z,26.20
2018-07-05T15:27:01.989Z,26.10
2018-07-05T15:29:41.549Z,26.10
2018-07-05T15:32:21.223Z,26.20
2018-07-05T15:35:00.893Z,26.10
2018-07-05T15:37:40.463Z,25.80
2018-07-05T15:40:20.051Z,25.80
2018-07-05T15:42:59.506Z,25.60
2018-07-05T15:45:39.907Z,25.60
2018-07-05T15:48:19.964Z,25.60
2018-07-05T15:50:59.946Z,25.50
2018-07-05T15:53:39.805Z,25.60
2018-07-05T15:56:19.549Z,25.70
2018-07-05T15:58:59.273Z,25.70
2018-07-05T16:01:39.109Z,25.60
2018-07-05T16:04:18.892Z,25.30
2018-07-05T16:06:58.926Z,25.30
2018-07-05T16:09:38.650Z,25.30
2018-07-05T16:12:18.274Z,25.20
2018-07-05T16:14:58.044Z,25.00
2018-07-05T16:17:37.748Z,24.80
2018-07-05T16:20:17.437Z,24.70
2018-07-05T16:22:57.232Z,24.60
2018-07-05T16:25:37.032Z,24.60
2018-07-05T16:28:16.791Z,24.60
2018-07-05T16:30:56.700Z,24.30
2018-07-05T16:33:36.347Z,24.20
2018-07-05T16:36:16.035Z,23.90
2018-07-05T16:38:55.834Z,23.70
2018-07-05T16:41:35.595Z,23.60
2018-07-05T16:44:17.469Z,23.50
2018-07-05T16:46:57.110Z,23.50
2018-07-05T16:49:36.680Z,23.60
2018-07-05T16:52:16.514Z,23.70
2018-07-05T16:54:56.449Z,23.80
2018-07-05T16:57:39.805Z,24.00
2018-07-05T17:00:19.466Z,24.10
2018-07-05T17:02:59.210Z,24.30
2018-07-05T17:05:39.012Z,24.40
2018-07-05T17:08:18.899Z,24.40
2018-07-05T17:10:58.599Z,24.40
2018-07-05T17:13:38.189Z,24.40
2018-07-05T17:16:17.902Z,24.60
2018-07-05T17:18:57.854Z,24.70
2018-07-05T17:21:37.630Z,24.90
2018-07-05T17:24:17.447Z,25.20
2018-07-05T17:26:57.167Z,25.60
2018-07-05T17:29:37.851Z,26.00
2018-07-05T17:34:51.050Z,26.40
2018-07-05T17:37:30.919Z,26.60
2018-07-05T17:40:10.536Z,26.70
2018-07-05T17:42:50.246Z,26.40
2018-07-05T17:45:29.935Z,26.00
2018-07-05T17:48:09.738Z,25.60
2018-07-05T17:50:49.663Z,25.30
2018-07-05T17:53:29.248Z,25.10
2018-07-05T17:56:09.870Z,24.90
2018-07-05T17:58:49.620Z,24.70
2018-07-05T18:01:29.370Z,24.60
2018-07-05T18:04:09.176Z,24.40
2018-07-05T18:06:48.776Z,24.20
2018-07-05T18:09:28.300Z,24.10
2018-07-05T18:12:08.024Z,24.00
2018-07-05T18:14:47.838Z,24.00
2018-07-05T18:17:27.560Z,24.00
2018-07-05T18:20:09.932Z,24.00
2018-07-05T18:22:49.582Z,23.90
2018-07-05T18:25:29.388Z,23.80
2018-07-05T18:28:09.230Z,23.70
2018-07-05T18:30:48.776Z,23.70
2018-07-05T18:33:28.511Z,23.70
2018-07-05T18:36:08.674Z,23.60
2018-07-05T18:38:58.543Z,23.50
2018-07-05T18:41:39.347Z,23.40
2018-07-05T18:44:26.018Z,23.30
2018-07-05T18:47:06.197Z,23.20
2018-07-05T18:49:46.206Z,23.10
2018-07-05T18:52:28.785Z,23.10
2018-07-05T18:55:08.664Z,23.00
2018-07-05T18:57:48.418Z,23.00
2018-07-05T19:00:28.124Z,22.90
2018-07-05T19:03:09.730Z,22.80
2018-07-05T19:05:49.471Z,22.80
2018-07-05T19:08:29.093Z,22.70
2018-07-05T19:11:08.814Z,22.70
2018-07-05T19:13:48.562Z,22.60
2018-07-05T19:16:28.422Z,22.50
2018-07-05T19:19:08.052Z,22.50
2018-07-05T19:21:47.800Z,22.40
2018-07-05T19:24:27.467Z,22.40
2018-07-05T19:27:07.203Z,22.30
2018-07-05T19:29:46.940Z,22.20
2018-07-05T19:32:26.839Z,22.10
2018-07-05T19:35:06.508Z,22.10
2018-07-05T19:37:46.240Z,22.00
2018-07-05T19:40:26.207Z,22.00
2018-07-05T19:43:05.809Z,21.90
2018-07-05T19:45:45.622Z,21.90
2018-07-05T19:48:25.285Z,21.80
2018-07-05T19:53:38.998Z,21.70
2018-07-05T19:56:18.767Z,21.70
2018-07-05T19:58:58.451Z,21.60
2018-07-05T20:01:38.512Z,21.60
2018-07-05T20:04:18.390Z,21.60
2018-07-05T20:06:58.122Z,21.50
2018-07-05T20:09:37.749Z,21.50
2018-07-05T20:12:17.528Z,21.50
2018-07-05T20:14:57.276Z,21.50
